METAR Data
IDs: Format: Raw Decoded Include TAF

Data at: 2323 UTC 18 Oct 2019

KMKT 182256Z AUTO 17016G25KT 10SM OVC080 21/06 A2953 RMK AO2 PK WND 17027/2204 SLP001 T02110056